createdAt,value
2023-03-16T00:02:25.201Z,17.03
2023-03-16T00:05:27.954Z,21.80
2023-03-16T00:08:30.717Z,18.20
2023-03-16T00:11:33.423Z,17.23
2023-03-16T00:14:36.567Z,16.10
2023-03-16T00:17:40.416Z,15.38
2023-03-16T00:23:45.557Z,11.90
2023-03-16T00:26:48.788Z,13.37
2023-03-16T00:29:56.423Z,17.23
2023-03-16T00:33:01.987Z,15.27
2023-03-16T00:36:08.100Z,17.97
2023-03-16T00:39:11.927Z,16.43
2023-03-16T00:42:16.663Z,15.68
2023-03-16T00:45:19.244Z,14.57
2023-03-16T00:48:24.377Z,19.40
2023-03-16T00:51:27.036Z,17.30
2023-03-16T00:54:30.065Z,20.13
2023-03-16T00:57:32.973Z,39.15
2023-03-16T01:00:36.418Z,33.58
2023-03-16T01:03:40.608Z,34.17
2023-03-16T01:06:43.141Z,34.17
2023-03-16T01:09:45.687Z,27.23
2023-03-16T01:12:48.253Z,68.43
2023-03-16T01:15:51.621Z,100.27
2023-03-16T01:18:56.874Z,64.15
2023-03-16T01:21:59.535Z,45.23
2023-03-16T01:25:02.131Z,26.70
2023-03-16T01:28:04.687Z,27.47
2023-03-16T01:31:09.322Z,18.20
2023-03-16T01:34:16.624Z,29.77
2023-03-16T01:37:19.219Z,21.73
2023-03-16T01:40:22.084Z,19.07
2023-03-16T01:43:26.694Z,24.00
2023-03-16T01:46:30.204Z,24.57
2023-03-16T01:49:35.446Z,21.60
2023-03-16T01:52:38.607Z,18.87
2023-03-16T01:55:41.909Z,22.88
2023-03-16T01:58:45.728Z,18.85
2023-03-16T02:04:56.571Z,19.53
2023-03-16T02:07:59.531Z,17.53
2023-03-16T02:11:02.238Z,19.35
2023-03-16T02:14:09.376Z,20.67
2023-03-16T02:17:12.530Z,17.03
2023-03-16T02:20:25.162Z,20.38
2023-03-16T02:23:27.876Z,20.83
2023-03-16T02:26:35.187Z,17.43
2023-03-16T02:30:01.482Z,16.47
2023-03-16T02:33:05.218Z,20.33
2023-03-16T02:36:08.692Z,16.73
2023-03-16T02:39:11.311Z,15.57
2023-03-16T02:42:15.973Z,19.97
2023-03-16T02:45:19.966Z,17.90
2023-03-16T02:48:24.808Z,20.03
2023-03-16T02:51:27.272Z,18.67
2023-03-16T02:54:30.338Z,18.73
2023-03-16T02:57:33.208Z,17.13
2023-03-16T03:00:37.334Z,16.10
2023-03-16T03:03:39.919Z,17.93
2023-03-16T03:06:42.731Z,17.03
2023-03-16T03:09:45.419Z,17.20
2023-03-16T03:12:49.453Z,18.13
2023-03-16T03:15:53.703Z,15.57
2023-03-16T03:18:56.304Z,18.07
2023-03-16T03:21:58.826Z,15.80
2023-03-16T03:25:02.890Z,19.97
2023-03-16T03:28:06.469Z,18.30
2023-03-16T03:31:14.545Z,19.48
2023-03-16T03:34:17.043Z,17.73
2023-03-16T03:37:19.946Z,18.00
2023-03-16T03:40:22.811Z,17.55
2023-03-16T03:43:25.446Z,19.65
2023-03-16T03:46:29.367Z,19.30
2023-03-16T03:49:32.259Z,16.47
2023-03-16T03:52:34.802Z,18.27
2023-03-16T03:55:37.358Z,20.83
2023-03-16T03:58:39.894Z,17.00
2023-03-16T04:01:43.782Z,19.37
2023-03-16T04:07:50.704Z,17.77
2023-03-16T04:10:53.256Z,16.37
2023-03-16T04:13:55.727Z,16.13
2023-03-16T04:16:59.699Z,21.33
2023-03-16T04:20:05.331Z,22.97
2023-03-16T04:23:07.846Z,19.00
2023-03-16T04:26:10.588Z,17.33
2023-03-16T04:29:14.334Z,16.27
2023-03-16T04:32:21.886Z,18.98
2023-03-16T04:35:25.675Z,20.27
2023-03-16T04:41:36.357Z,21.30
2023-03-16T04:44:44.253Z,21.77
2023-03-16T04:47:49.628Z,26.03
2023-03-16T04:50:52.249Z,25.77
2023-03-16T04:53:55.363Z,19.50
2023-03-16T04:56:57.934Z,22.50
2023-03-16T05:00:00.822Z,22.80
2023-03-16T05:03:05.187Z,21.48
2023-03-16T05:06:08.264Z,21.13
2023-03-16T05:09:10.852Z,20.13
2023-03-16T05:12:13.465Z,21.83
2023-03-16T05:15:16.257Z,19.83
2023-03-16T05:18:20.092Z,26.70
2023-03-16T05:24:25.469Z,20.53
2023-03-16T05:27:28.177Z,23.07
2023-03-16T05:30:31.280Z,21.20
2023-03-16T05:33:35.561Z,23.33
2023-03-16T05:36:38.115Z,22.43
2023-03-16T05:39:40.745Z,28.07
2023-03-16T05:42:44.112Z,31.53
2023-03-16T05:45:46.936Z,20.88
2023-03-16T05:48:51.155Z,25.80
2023-03-16T05:51:54.821Z,21.93
2023-03-16T05:54:57.546Z,26.95
2023-03-16T05:58:00.138Z,22.33
2023-03-16T06:01:02.963Z,23.17
2023-03-16T06:04:07.387Z,22.60
2023-03-16T06:07:10.714Z,25.83
2023-03-16T06:10:13.770Z,24.88
2023-03-16T06:13:16.449Z,22.65
2023-03-16T06:16:19.095Z,20.40
2023-03-16T06:19:23.019Z,24.97
2023-03-16T06:25:28.205Z,24.57
2023-03-16T06:28:30.749Z,21.83
2023-03-16T06:31:34.083Z,20.40
2023-03-16T06:34:38.391Z,22.13
2023-03-16T06:37:41.079Z,20.80
2023-03-16T06:40:43.649Z,23.23
2023-03-16T06:43:47.252Z,28.70
2023-03-16T06:46:49.767Z,22.38
2023-03-16T06:49:55.238Z,20.40
2023-03-16T06:52:57.770Z,27.07
2023-03-16T06:56:01.164Z,18.73
2023-03-16T06:59:03.695Z,27.50
2023-03-16T07:02:06.930Z,23.50
2023-03-16T07:05:13.125Z,25.08
2023-03-16T07:08:16.109Z,25.93
2023-03-16T07:11:18.631Z,23.90
2023-03-16T07:14:23.254Z,23.80
2023-03-16T07:17:26.001Z,23.97
2023-03-16T07:20:32.242Z,31.97
2023-03-16T07:23:34.881Z,32.50
2023-03-16T07:26:37.685Z,28.47
2023-03-16T07:29:40.192Z,28.37
2023-03-16T07:32:42.934Z,30.40
2023-03-16T07:35:46.933Z,25.50
2023-03-16T07:38:49.498Z,24.20
2023-03-16T07:41:52.102Z,28.90
2023-03-16T07:44:54.755Z,29.03
2023-03-16T07:47:57.358Z,17.97
2023-03-16T07:51:01.672Z,16.53
2023-03-16T07:54:04.364Z,17.13
2023-03-16T07:57:07.208Z,16.67
2023-03-16T08:00:11.158Z,15.13
2023-03-16T08:03:13.962Z,15.07
2023-03-16T08:06:18.164Z,18.07
2023-03-16T08:09:21.304Z,12.07
2023-03-16T08:12:23.962Z,17.88
2023-03-16T08:15:26.668Z,10.60
2023-03-16T08:18:29.785Z,13.47
2023-03-16T08:21:35.121Z,10.02
2023-03-16T08:24:40.556Z,12.53
2023-03-16T08:27:43.372Z,14.53
2023-03-16T08:30:47.930Z,13.20
2023-03-16T08:33:50.830Z,12.33
2023-03-16T08:36:55.326Z,9.90
2023-03-16T08:40:00.438Z,11.33
2023-03-16T08:43:03.804Z,10.97
2023-03-16T08:46:06.938Z,15.38
2023-03-16T08:49:09.708Z,15.75
2023-03-16T08:52:13.924Z,17.10
2023-03-16T08:55:16.850Z,11.83
2023-03-16T08:58:19.834Z,14.25
2023-03-16T09:01:22.691Z,7.53
2023-03-16T09:04:25.364Z,14.02
2023-03-16T09:07:29.291Z,9.47
2023-03-16T09:10:33.139Z,10.80
2023-03-16T09:13:36.444Z,8.90
2023-03-16T09:16:39.432Z,8.02
2023-03-16T09:19:52.166Z,10.45
2023-03-16T09:22:57.571Z,10.32
2023-03-16T09:26:01.623Z,11.60
2023-03-16T09:29:06.816Z,8.13
2023-03-16T09:32:10.472Z,11.80
2023-03-16T09:38:17.667Z,13.70
2023-03-16T09:41:32.405Z,10.83
2023-03-16T09:44:40.480Z,6.40
2023-03-16T09:47:43.575Z,6.33
2023-03-16T09:50:49.265Z,6.88
2023-03-16T09:53:59.169Z,7.37
2023-03-16T09:57:02.272Z,7.57
2023-03-16T10:00:17.248Z,3.50
2023-03-16T10:03:32.280Z,7.13
2023-03-16T10:06:37.233Z,7.87
2023-03-16T10:09:44.536Z,8.63
2023-03-16T10:12:51.515Z,6.83
2023-03-16T10:15:55.295Z,7.23
2023-03-16T10:19:02.398Z,6.77
2023-03-16T10:22:18.524Z,10.33
2023-03-16T10:25:25.051Z,9.27
2023-03-16T10:28:29.425Z,8.67
2023-03-16T10:31:35.080Z,9.07
2023-03-16T10:34:37.755Z,9.47
2023-03-16T10:37:40.536Z,10.67
2023-03-16T10:40:44.588Z,3.97
2023-03-16T10:43:49.217Z,5.90
2023-03-16T10:47:00.703Z,7.90
2023-03-16T10:50:14.272Z,7.03
2023-03-16T10:53:20.963Z,4.80
2023-03-16T10:56:28.123Z,5.60
2023-03-16T10:59:34.209Z,5.13
2023-03-16T11:02:36.805Z,7.33
2023-03-16T11:05:39.622Z,6.47
2023-03-16T11:08:42.442Z,5.30
2023-03-16T11:11:49.905Z,5.47
2023-03-16T11:14:54.010Z,5.00
2023-03-16T11:17:57.437Z,6.00
2023-03-16T11:21:04.989Z,6.88
2023-03-16T11:24:17.083Z,3.93
2023-03-16T11:27:26.147Z,3.63
2023-03-16T11:30:31.452Z,4.10
2023-03-16T11:33:34.822Z,4.93
2023-03-16T11:36:45.624Z,7.30
2023-03-16T11:39:56.361Z,3.70
2023-03-16T11:43:06.139Z,5.83
2023-03-16T11:46:11.871Z,5.83
2023-03-16T11:49:32.695Z,3.07
2023-03-16T11:52:46.263Z,5.00
2023-03-16T11:56:00.640Z,4.70
2023-03-16T11:59:23.030Z,6.63
2023-03-16T12:02:46.346Z,3.77
2023-03-16T12:05:57.100Z,6.22
2023-03-16T12:09:16.896Z,7.90
2023-03-16T12:12:30.838Z,4.60
2023-03-16T12:15:38.432Z,2.60
2023-03-16T12:18:44.777Z,2.90
2023-03-16T12:21:49.952Z,4.87
2023-03-16T12:24:53.288Z,4.03
2023-03-16T12:27:57.907Z,4.60
2023-03-16T12:31:09.458Z,3.80
2023-03-16T12:34:20.711Z,6.47
2023-03-16T12:37:29.544Z,5.10
2023-03-16T12:40:34.780Z,5.57
2023-03-16T12:43:49.719Z,4.67
2023-03-16T12:46:57.685Z,4.47
2023-03-16T12:50:06.051Z,4.90
2023-03-16T12:53:08.656Z,4.20
2023-03-16T12:56:12.855Z,6.53
2023-03-16T12:59:19.625Z,5.07
2023-03-16T13:02:26.955Z,3.77
2023-03-16T13:05:32.110Z,5.67
2023-03-16T13:08:42.575Z,5.83
2023-03-16T13:11:50.228Z,7.23
2023-03-16T13:14:54.783Z,2.97
2023-03-16T13:18:23.278Z,5.67
2023-03-16T13:21:36.503Z,3.73
2023-03-16T13:24:41.002Z,6.07
2023-03-16T13:27:45.538Z,5.60
2023-03-16T13:30:49.485Z,4.67
2023-03-16T13:33:55.583Z,3.30
2023-03-16T13:36:59.655Z,2.87
2023-03-16T13:40:04.393Z,6.90
2023-03-16T13:43:07.075Z,7.87
2023-03-16T13:46:17.132Z,4.28
2023-03-16T13:49:21.329Z,2.90
2023-03-16T13:52:26.834Z,4.30
2023-03-16T13:55:32.859Z,3.13
2023-03-16T13:58:37.852Z,5.50
2023-03-16T14:01:45.515Z,3.17
2023-03-16T14:04:49.755Z,4.93
2023-03-16T14:07:52.700Z,2.83
2023-03-16T14:10:59.820Z,5.25
2023-03-16T14:14:15.983Z,3.50
2023-03-16T14:17:20.688Z,4.67
2023-03-16T14:20:26.004Z,5.43
2023-03-16T14:23:34.091Z,3.93
2023-03-16T14:26:44.129Z,4.50
2023-03-16T14:29:47.373Z,2.47
2023-03-16T14:32:58.786Z,3.67
2023-03-16T14:36:13.017Z,3.47
2023-03-16T14:39:18.194Z,9.17
2023-03-16T14:42:24.362Z,3.63
2023-03-16T14:45:31.627Z,3.87
2023-03-16T14:48:35.278Z,3.70
2023-03-16T14:51:41.083Z,4.40
2023-03-16T14:54:43.696Z,2.37
2023-03-16T14:57:46.944Z,2.63
2023-03-16T15:03:56.586Z,3.87
2023-03-16T15:07:00.720Z,3.40
2023-03-16T15:10:09.822Z,4.60
2023-03-16T15:13:16.899Z,7.87
2023-03-16T15:16:21.680Z,5.03
2023-03-16T15:19:24.252Z,4.77
2023-03-16T15:22:32.356Z,3.17
2023-03-16T15:25:36.849Z,4.70
2023-03-16T15:28:39.603Z,8.27
2023-03-16T15:31:42.350Z,6.20
2023-03-16T15:34:46.442Z,6.10
2023-03-16T15:37:50.454Z,4.27
2023-03-16T15:40:53.562Z,4.03
2023-03-16T15:44:00.657Z,4.30
2023-03-16T15:47:04.446Z,2.53
2023-03-16T15:50:08.514Z,4.73
2023-03-16T15:53:29.829Z,4.07
2023-03-16T15:56:47.224Z,2.60
2023-03-16T15:59:53.823Z,2.03
2023-03-16T16:02:57.862Z,2.80
2023-03-16T16:06:00.348Z,3.27
2023-03-16T16:09:04.544Z,2.83
2023-03-16T16:12:10.429Z,2.67
2023-03-16T16:15:20.048Z,4.30
2023-03-16T16:18:30.171Z,4.57
2023-03-16T16:21:35.039Z,5.17
2023-03-16T16:24:39.604Z,5.50
2023-03-16T16:27:42.420Z,4.63
2023-03-16T16:30:45.377Z,4.53
2023-03-16T16:33:47.986Z,4.43
2023-03-16T16:36:50.788Z,3.28
2023-03-16T16:39:54.836Z,4.28
2023-03-16T16:42:57.404Z,3.17
2023-03-16T16:46:00.345Z,3.33
2023-03-16T16:49:06.685Z,19.42
2023-03-16T16:52:12.366Z,2.50
2023-03-16T16:55:16.332Z,3.83
2023-03-16T16:58:24.493Z,6.13
2023-03-16T17:01:29.663Z,4.77
2023-03-16T17:04:32.521Z,4.27
2023-03-16T17:07:35.171Z,5.93
2023-03-16T17:10:40.340Z,4.72
2023-03-16T17:13:43.116Z,4.87
2023-03-16T17:16:47.565Z,2.88
2023-03-16T17:19:50.140Z,4.37
2023-03-16T17:22:54.952Z,2.93
2023-03-16T17:26:00.876Z,6.77
2023-03-16T17:29:06.964Z,3.97
2023-03-16T17:32:18.654Z,5.10
2023-03-16T17:35:21.526Z,4.87
2023-03-16T17:38:25.611Z,6.38
2023-03-16T17:41:32.961Z,5.17
2023-03-16T17:44:39.016Z,3.93
2023-03-16T17:47:41.633Z,3.33
2023-03-16T17:50:46.060Z,4.17
2023-03-16T17:53:49.011Z,5.40
2023-03-16T17:56:53.643Z,4.80
2023-03-16T17:59:56.442Z,3.47
2023-03-16T18:03:00.874Z,4.65
2023-03-16T18:06:04.636Z,4.03
2023-03-16T18:09:07.583Z,3.27
2023-03-16T18:12:30.204Z,3.00
2023-03-16T18:15:34.869Z,5.70
2023-03-16T18:18:39.577Z,4.50
2023-03-16T18:21:42.240Z,4.37
2023-03-16T18:24:44.939Z,4.50
2023-03-16T18:27:49.588Z,3.90
2023-03-16T18:30:53.576Z,4.57
2023-03-16T18:33:57.440Z,2.27
2023-03-16T18:37:06.887Z,4.00
2023-03-16T18:40:12.642Z,3.30
2023-03-16T18:43:18.132Z,6.60
2023-03-16T18:46:26.211Z,3.33
2023-03-16T18:49:32.839Z,6.17
2023-03-16T18:52:37.111Z,4.30
2023-03-16T18:55:44.937Z,9.47
2023-03-16T18:58:49.159Z,4.37
2023-03-16T19:01:51.744Z,5.17
2023-03-16T19:04:54.735Z,5.93
2023-03-16T19:07:57.500Z,5.43
2023-03-16T19:11:02.103Z,5.88
2023-03-16T19:14:14.310Z,5.30
2023-03-16T19:17:16.966Z,5.40
2023-03-16T19:20:21.129Z,6.40
2023-03-16T19:23:26.383Z,4.87
2023-03-16T19:26:29.405Z,9.87
2023-03-16T19:29:35.132Z,5.68
2023-03-16T19:32:38.701Z,5.00
2023-03-16T19:35:51.366Z,4.40
2023-03-16T19:38:54.870Z,7.18
2023-03-16T19:41:59.138Z,5.90
2023-03-16T19:45:03.963Z,5.27
2023-03-16T19:48:11.655Z,6.97
2023-03-16T19:51:15.949Z,5.40
2023-03-16T19:54:22.577Z,4.60
2023-03-16T19:57:25.263Z,6.40
2023-03-16T20:00:30.976Z,9.00
2023-03-16T20:03:36.432Z,5.17
2023-03-16T20:06:39.058Z,9.97
2023-03-16T20:09:41.657Z,5.17
2023-03-16T20:12:44.338Z,5.87
2023-03-16T20:15:48.417Z,8.70
2023-03-16T20:18:54.755Z,6.60
2023-03-16T20:21:57.222Z,7.77
2023-03-16T20:25:02.200Z,6.30
2023-03-16T20:28:05.302Z,9.07
2023-03-16T20:31:18.412Z,8.50
2023-03-16T20:34:23.522Z,9.43
2023-03-16T20:37:27.840Z,6.43
2023-03-16T20:40:30.581Z,10.03
2023-03-16T20:43:33.466Z,6.90
2023-03-16T20:46:41.090Z,5.47
2023-03-16T20:49:44.542Z,7.60
2023-03-16T20:52:47.788Z,9.60
2023-03-16T20:55:50.723Z,7.15
2023-03-16T20:58:56.075Z,12.15
2023-03-16T21:02:01.088Z,6.57
2023-03-16T21:05:06.458Z,9.83
2023-03-16T21:08:09.476Z,6.43
2023-03-16T21:11:21.205Z,8.30
2023-03-16T21:14:24.716Z,8.37
2023-03-16T21:17:31.817Z,10.70
2023-03-16T21:20:36.550Z,17.70
2023-03-16T21:23:39.169Z,7.40
2023-03-16T21:26:43.261Z,11.47
2023-03-16T21:29:45.940Z,5.00
2023-03-16T21:32:49.908Z,5.30
2023-03-16T21:35:52.515Z,6.83
2023-03-16T21:38:56.404Z,8.57
2023-03-16T21:41:59.024Z,5.77
2023-03-16T21:45:01.795Z,7.90
2023-03-16T21:48:06.283Z,6.72
2023-03-16T21:51:14.370Z,8.87
2023-03-16T21:54:19.209Z,8.73
2023-03-16T21:57:22.111Z,9.27
2023-03-16T22:00:26.769Z,7.68
2023-03-16T22:03:47.978Z,12.70
2023-03-16T22:06:52.141Z,13.47
2023-03-16T22:09:54.688Z,8.73
2023-03-16T22:12:58.248Z,7.57
2023-03-16T22:16:00.914Z,7.05
2023-03-16T22:19:05.815Z,9.30
2023-03-16T22:22:11.189Z,6.70
2023-03-16T22:25:15.257Z,8.47
2023-03-16T22:28:18.004Z,7.57
2023-03-16T22:31:22.382Z,5.17
2023-03-16T22:34:32.493Z,5.00
2023-03-16T22:37:35.179Z,9.70
2023-03-16T22:40:39.220Z,8.63
2023-03-16T22:43:44.046Z,12.60
2023-03-16T22:46:46.797Z,8.37
2023-03-16T22:49:51.048Z,7.97
2023-03-16T22:52:55.627Z,8.30
2023-03-16T22:55:58.304Z,6.30
2023-03-16T22:59:03.619Z,6.13
2023-03-16T23:02:07.154Z,5.93
2023-03-16T23:05:19.703Z,15.65
2023-03-16T23:08:24.188Z,7.13
2023-03-16T23:11:28.652Z,12.87
2023-03-16T23:14:33.941Z,15.07
2023-03-16T23:17:36.593Z,10.07
2023-03-16T23:20:40.528Z,14.60
2023-03-16T23:23:48.311Z,11.20
2023-03-16T23:26:59.781Z,10.53
2023-03-16T23:30:02.473Z,10.03
2023-03-16T23:33:05.227Z,9.47
2023-03-16T23:36:15.294Z,6.47
2023-03-16T23:39:17.936Z,8.43
2023-03-16T23:42:20.497Z,9.77
2023-03-16T23:45:27.300Z,7.57
2023-03-16T23:48:30.003Z,12.40
2023-03-16T23:51:37.024Z,9.17
2023-03-16T23:54:39.666Z,6.53
2023-03-16T23:57:42.323Z,9.13
